Aérodrome :







RETROUVEZ-NOUS SUR...

 
LOGIN :

S'inscrire | Disclaimer

   EN    FR    IT 

 









Légende :    VFR   VFR Marginal   IFR   IFR Intensif   IFR Très Intensif
Visi : 
Plafond : 
>= 8 km
>= 3000ft
5 à 8 km
1000 à 3000 ft
1500m à 5 km
500 à 1000 ft
800 à 1500m
200 à 500 ft
< 800m
< 200 ft
Symboles :   Orages  Brouillard  Fortes neiges  Fortes précipitations  Vent > 20 kt






- Altitude de l'aérodrome : 129 ft
- Code IATA : YVP


CYVP - Kuujjuak

DERNIER METAR :
  • 032200Z 04012G17KT 15SM FEW059 FEW160 14/M00 A2997 RMK CU1AC1 CU TR SLP152

METARs EXPIRÉS :
  • 032100Z 03012KT 15SM FEW058 FEW130 14/01 A2996 RMK CU1AC2 CU TR SLP148
  • 032000Z 04015KT 15SM FEW049 FEW130 15/02 A2995 RMK CU1AC1 CU TR AC TR SLP145

TAF TAF CYVP
Valide du 03 à 18h jusqu'au 04 à 06h UTC


031738Z 0318/0406 03012KT P6SM BKN100 BKN180
BECMG 0400/0402 01006KT RMK NXT FCST BY 040000Z
FIR CZUL / Amérique du Nord



MET'MAP, la Météo Aéronautique d'un coup d'oeil ! - Copyright ORBIFLY Décembre 2007 - Disclaimer

ORBIFLY MET'MAP TEAM :

Programmation & Développement : Alexandra Zaïnal
Sur une idée originale de : Baudouin d'Aumeries
Assistance à la programmation : Marc-Olivier Méhu
Soutien technique & logistique : Manuel Goepfert

Contact : metmap@orbifly.com




SOURCES & CREDITS :

   NOAA